Nepheli — 3FNC5 — position and weather

sailwx.info

Track history (hours):
 
Tides and Currents Weather Stations Pressure Air Temp Water Temp Dewpoint Dewpoint Depression Visibility Wind Speed Wind Dir Waves Ship Positions

Nepheli

Last reported at 2016-May-05 21:32 UTC. Time now 2016-May-06 03:31 UTC.
Position N 37°37' E 023°45'.

Length 90 m; draft 5.3 m.

Type: Tanker. MMSI: 370679000.

Date/timePositionNaut miles runAvg speedWind from/ knotsBaromVisibWave heightAir tempDewpointWater temp
2016-May-05 21:32N 37°37' E 023°45'8 8.2
2016-May-05 20:33N 37°44' E 023°39'8 8.2
2016-May-05 19:34N 37°51' E 023°35'6 6.4
2016-May-05 18:33N 37°58' E 023°33'5 0.5
2016-May-05 09:04N 38°02' E 023°36'0 0.0
2016-May-05 04:16N 38°02' E 023°36'0 0.0
2016-May-05 03:16N 38°02' E 023°36'0 0.0
2016-May-05 02:13N 38°02' E 023°36'0 0.0
2016-May-05 01:28N 38°02' E 023°36'0 0.0
2016-May-05 00:04N 38°02' E 023°36'0 0.0
2016-May-04 22:31N 38°02' E 023°36'0 0.0
2016-May-04 17:30N 38°02' E 023°36'1 1.0
2016-May-04 16:32N 38°01' E 023°35'6 5.8
2016-May-04 15:33N 37°56' E 023°36'8 8.0
2016-May-04 14:33N 37°48' E 023°40'9 9.0
2016-May-04 13:33N 37°40' E 023°46'10 9.0
2016-May-04 12:27N 37°34' E 023°55'48 8.2
2016-May-04 06:33N 37°05' E 024°45'  
2016-May-02 01:33N 34°32' E 032°48'9 9.2
2016-May-02 00:34N 34°30' E 032°59'9 8.6
2016-May-01 23:32N 34°27' E 033°09'12 8.5
2016-May-01 22:05N 34°23' E 033°23'7 8.5
2016-May-01 21:19N 34°22' E 033°31'88 8.9
2016-May-01 11:29N 33°56' E 035°12'3 0.1
2016-Apr-29 19:11N 33°55' E 035°15'22 7.9
2016-Apr-29 16:24N 33°58' E 034°49'28 8.7
2016-Apr-29 13:14N 34°08' E 034°18'6 8.9
2016-Apr-29 12:33N 34°09' E 034°11'70 8.5
2016-Apr-29 04:20N 34°31' E 032°50'  
2016-Apr-26 18:33N 37°37' E 023°44'9 8.6
2016-Apr-26 17:33N 37°45' E 023°39'7 7.4
2016-Apr-26 16:33N 37°50' E 023°32'9 8.5
2016-Apr-26 15:33N 37°51' E 023°21'13 2.5
2016-Apr-26 10:16N 37°55' E 023°05'  
Track history (hours):
 
Tides and Currents Weather Stations Pressure Air Temp Water Temp Dewpoint Dewpoint Depression Visibility Wind Speed Wind Dir Waves Ship Positions

Nepheli

Last reported at 2016-May-05 21:32 UTC. Time now 2016-May-06 03:31 UTC.
Position N 37°37' E 023°45'.

Length 90 m; draft 5.3 m.

Type: Tanker. MMSI: 370679000.

Date/timePositionNaut miles runAvg speedWind from/ knotsBaromVisibWave heightAir tempDewpointWater temp
2016-May-05 21:32N 37°37' E 023°45'8 8.2
2016-May-05 20:33N 37°44' E 023°39'8 8.2
2016-May-05 19:34N 37°51' E 023°35'6 6.4
2016-May-05 18:33N 37°58' E 023°33'5 0.5
2016-May-05 09:04N 38°02' E 023°36'0 0.0
2016-May-05 04:16N 38°02' E 023°36'0 0.0
2016-May-05 03:16N 38°02' E 023°36'0 0.0
2016-May-05 02:13N 38°02' E 023°36'0 0.0
2016-May-05 01:28N 38°02' E 023°36'0 0.0
2016-May-05 00:04N 38°02' E 023°36'0 0.0
2016-May-04 22:31N 38°02' E 023°36'0 0.0
2016-May-04 17:30N 38°02' E 023°36'1 1.0
2016-May-04 16:32N 38°01' E 023°35'6 5.8
2016-May-04 15:33N 37°56' E 023°36'8 8.0
2016-May-04 14:33N 37°48' E 023°40'9 9.0
2016-May-04 13:33N 37°40' E 023°46'10 9.0
2016-May-04 12:27N 37°34' E 023°55'48 8.2
2016-May-04 06:33N 37°05' E 024°45'  
2016-May-02 01:33N 34°32' E 032°48'9 9.2
2016-May-02 00:34N 34°30' E 032°59'9 8.6
2016-May-01 23:32N 34°27' E 033°09'12 8.5
2016-May-01 22:05N 34°23' E 033°23'7 8.5
2016-May-01 21:19N 34°22' E 033°31'88 8.9
2016-May-01 11:29N 33°56' E 035°12'3 0.1
2016-Apr-29 19:11N 33°55' E 035°15'22 7.9
2016-Apr-29 16:24N 33°58' E 034°49'28 8.7
2016-Apr-29 13:14N 34°08' E 034°18'6 8.9
2016-Apr-29 12:33N 34°09' E 034°11'70 8.5
2016-Apr-29 04:20N 34°31' E 032°50'  
2016-Apr-26 18:33N 37°37' E 023°44'9 8.6
2016-Apr-26 17:33N 37°45' E 023°39'7 7.4
2016-Apr-26 16:33N 37°50' E 023°32'9 8.5
2016-Apr-26 15:33N 37°51' E 023°21'13 2.5
2016-Apr-26 10:16N 37°55' E 023°05'  

Dump ship's entire track history